KMGR/MGR METAR and TAF weather

Enter ICAO airport designator
Station Type Date Time Source
KMGR METAR 2022/07/03 15:15 UTC NOAA

KMGR 031515Z AUTO 00000KT 10SM CLR 28/22 A3013 RMK AO2 LTG DSNT S


Station Type Date Time Source
KMGR Decoded METAR 2022/07/03 15:15 UTC NOAA

Moultrie, Moultrie Municipal Airport, GA, United States (KMGR) 31-05-05N 083-48-11W
Jul 03, 2022 - 11:15 AM EDT / 2022.07.03 1515 UTC
Wind: Calm:0
Visibility: 10 mile(s):0
Sky conditions: clear
Weather: Lightning observed
Temperature: 82 F (28 C)
Dew Point: 71 F (22 C)
Relative Humidity: 69%
Pressure (altimeter): 30.13 in. Hg (1020 hPa)
ob: KMGR 031515Z AUTO 00000KT 10SM CLR 28/22 A3013 RMK AO2 LTG DSNT S
cycle: 15

Station Type Date Time Source
KMGR TAF UTC NOAA

Error!

Example: see airport list